Cou Falls, Iowa
Current Conditions -  °F | °C
As of 5:52 AM on Monday 26 Jan 2015 (Local Time) from KCID Reporting Station
Overcast Overcast  
Wind Chill: -11°   Ceiling: 2200
Heat Index: -6°   Visibility: 10mi
Dew Point: -8°   Wind: 7mph
Humidity: 85%   Direction: 170°S
Pressure: 29.93"   Gusts: NA
Location:  41.8309°N, 91.7193°W
Report Text: KCID 261152Z 17006KT 10SM OVC022 M06/M08 A2993 RMK AO2 SLP147 70003 T10611083 11056 21072 58023
Loading
Personal Weather Stations






























Interactive Weather Map New forecast layout! Learn more

10-Day Weather Forecast

Advertisements
Track Severe Weather on mobile